createdAt,value
2019-04-21T00:02:08.598Z,72.50
2019-04-21T00:04:50.728Z,72.70
2019-04-21T00:07:26.479Z,72.50
2019-04-21T00:10:03.906Z,72.20
2019-04-21T00:12:28.677Z,71.80
2019-04-21T00:14:49.426Z,71.60
2019-04-21T00:17:15.378Z,71.40
2019-04-21T00:19:44.260Z,71.30
2019-04-21T00:22:23.212Z,72.20
2019-04-21T00:25:01.054Z,72.80
2019-04-21T00:27:32.426Z,72.60
2019-04-21T00:30:03.400Z,72.80
2019-04-21T00:32:29.313Z,72.90
2019-04-21T00:34:50.996Z,73.70
2019-04-21T00:37:26.710Z,73.50
2019-04-21T00:40:09.238Z,74.00
2019-04-21T00:42:34.544Z,73.20
2019-04-21T00:45:03.498Z,73.10
2019-04-21T00:47:44.666Z,72.50
2019-04-21T00:50:28.158Z,72.50
2019-04-21T00:57:57.137Z,75.10
2019-04-21T01:00:29.022Z,74.80
2019-04-21T01:05:33.577Z,75.20
2019-04-21T01:07:58.024Z,75.50
2019-04-21T01:10:24.504Z,76.00
2019-04-21T01:13:03.995Z,76.30
2019-04-21T01:15:36.921Z,76.20
2019-04-21T01:18:05.094Z,76.20
2019-04-21T01:20:17.276Z,76.70
2019-04-21T01:22:43.190Z,77.00
2019-04-21T01:25:22.703Z,77.30
2019-04-21T01:27:59.040Z,76.80
2019-04-21T01:30:34.504Z,76.40
2019-04-21T01:33:07.953Z,77.10
2019-04-21T01:35:40.279Z,77.50
2019-04-21T01:38:10.951Z,78.20
2019-04-21T01:40:42.838Z,77.80
2019-04-21T01:43:08.634Z,78.80
2019-04-21T01:45:41.637Z,79.90
2019-04-21T01:48:06.066Z,80.00
2019-04-21T01:50:36.388Z,80.40
2019-04-21T01:53:20.529Z,80.00
2019-04-21T01:55:54.407Z,79.80
2019-04-21T01:58:23.054Z,79.80
2019-04-21T02:00:56.766Z,79.90
2019-04-21T02:03:52.842Z,80.30
2019-04-21T02:06:11.371Z,80.80
2019-04-21T02:08:34.072Z,81.40
2019-04-21T02:11:12.318Z,81.50
2019-04-21T02:13:35.407Z,81.60
2019-04-21T02:18:33.676Z,81.80
2019-04-21T02:20:57.094Z,82.30
2019-04-21T02:23:46.007Z,82.50
2019-04-21T02:26:09.531Z,82.40
2019-04-21T02:31:20.474Z,82.60
2019-04-21T02:33:55.915Z,82.50
2019-04-21T02:39:00.621Z,83.30
2019-04-21T02:41:26.517Z,83.30
2019-04-21T02:44:00.659Z,83.60
2019-04-21T02:46:31.329Z,83.70
2019-04-21T02:49:13.403Z,83.00
2019-04-21T02:51:28.197Z,83.40
2019-04-21T02:59:02.714Z,83.70
2019-04-21T03:04:34.369Z,84.20
2019-04-21T03:07:09.374Z,84.00
2019-04-21T03:22:12.839Z,84.30
2019-04-21T03:25:01.241Z,85.00
2019-04-21T03:27:17.234Z,85.80
2019-04-21T03:29:44.726Z,86.80
2019-04-21T03:42:36.679Z,88.80
2019-04-21T03:44:45.283Z,89.10
2019-04-21T03:47:26.867Z,89.20
2019-04-21T03:52:30.256Z,89.50
2019-04-21T04:06:03.444Z,87.30
2019-04-21T04:08:53.922Z,88.30
2019-04-21T04:14:04.493Z,89.00
2019-04-21T04:16:31.279Z,89.90
2019-04-21T04:19:16.029Z,90.00
2019-04-21T04:21:48.023Z,90.40
2019-04-21T04:24:34.268Z,90.30
2019-04-21T04:26:45.382Z,90.60
2019-04-21T04:36:58.465Z,90.60
2019-04-21T04:42:43.293Z,90.20
2019-04-21T04:57:17.999Z,88.00
2019-04-21T05:02:20.535Z,89.10
2019-04-21T05:05:02.629Z,90.10
2019-04-21T05:07:13.899Z,90.00
2019-04-21T05:09:46.588Z,89.60
2019-04-21T05:12:29.531Z,89.30
2019-04-21T05:15:09.699Z,89.40
2019-04-21T05:17:43.546Z,89.30
2019-04-21T05:20:20.197Z,89.30
2019-04-21T05:22:44.905Z,89.00
2019-04-21T05:25:11.006Z,89.10
2019-04-21T05:27:45.283Z,89.00
2019-04-21T05:30:22.093Z,88.50
2019-04-21T05:32:59.936Z,87.90
2019-04-21T05:35:52.033Z,87.90
2019-04-21T05:38:31.511Z,87.60
2019-04-21T05:41:06.303Z,86.70
2019-04-21T05:43:41.740Z,76.80
2019-04-21T05:52:51.399Z,45.00
2019-04-21T05:55:56.934Z,40.90
2019-04-21T05:58:21.005Z,37.80
2019-04-21T06:03:34.282Z,34.80
2019-04-21T06:08:25.131Z,33.70
2019-04-21T06:13:35.113Z,32.10
2019-04-21T06:15:58.009Z,31.80
2019-04-21T06:18:41.351Z,31.20
2019-04-21T06:20:59.501Z,31.10
2019-04-21T06:23:30.496Z,30.40
2019-04-21T06:28:33.648Z,29.10
2019-04-21T06:33:35.613Z,29.00
2019-04-21T06:39:04.725Z,29.40
2019-04-21T06:41:32.579Z,28.50
2019-04-21T06:46:41.078Z,28.10
2019-04-21T06:49:04.892Z,28.10
2019-04-21T06:54:03.438Z,27.70
2019-04-21T06:56:36.525Z,26.70
2019-04-21T06:59:01.316Z,26.50
2019-04-21T07:01:36.800Z,27.80
2019-04-21T07:06:35.630Z,26.80
2019-04-21T07:09:20.984Z,27.20
2019-04-21T07:11:33.673Z,27.50
2019-04-21T07:14:24.379Z,26.50
2019-04-21T07:16:42.897Z,26.50
2019-04-21T07:19:14.617Z,27.00
2019-04-21T07:21:34.440Z,27.30
2019-04-21T07:24:05.283Z,27.90
2019-04-21T07:26:36.856Z,27.90
2019-04-21T07:29:09.067Z,28.20
2019-04-21T07:31:39.795Z,27.20
2019-04-21T07:34:16.082Z,27.40
2019-04-21T07:36:45.017Z,27.00
2019-04-21T07:39:05.953Z,28.00
2019-04-21T07:41:32.927Z,26.60
2019-04-21T07:44:00.268Z,26.70
2019-04-21T07:46:29.054Z,27.70
2019-04-21T07:49:13.526Z,28.20
2019-04-21T07:51:55.157Z,29.80
2019-04-21T07:54:25.119Z,28.80
2019-04-21T07:56:33.220Z,30.40
2019-04-21T07:59:22.875Z,31.40
2019-04-21T08:01:52.002Z,31.10
2019-04-21T08:04:39.295Z,31.20
2019-04-21T08:06:52.044Z,33.70
2019-04-21T08:09:19.804Z,30.50
2019-04-21T08:11:48.753Z,32.10
2019-04-21T08:14:24.272Z,32.00
2019-04-21T08:19:25.838Z,32.20
2019-04-21T08:21:59.840Z,30.00
2019-04-21T08:24:20.050Z,33.10
2019-04-21T08:26:58.669Z,30.10
2019-04-21T08:29:33.201Z,31.70
2019-04-21T08:32:02.909Z,33.90
2019-04-21T08:34:28.468Z,32.40
2019-04-21T08:36:58.865Z,31.00
2019-04-21T08:39:30.251Z,33.50
2019-04-21T08:41:58.764Z,31.70
2019-04-21T08:44:33.640Z,30.50
2019-04-21T08:47:06.080Z,31.80
2019-04-21T08:49:26.511Z,35.10
2019-04-21T08:52:11.294Z,32.10
2019-04-21T08:54:32.305Z,30.00
2019-04-21T08:57:11.638Z,30.40
2019-04-21T08:59:48.542Z,31.30
2019-04-21T09:02:14.472Z,30.60
2019-04-21T09:04:45.839Z,30.60
2019-04-21T09:07:19.415Z,31.00
2019-04-21T09:09:46.784Z,29.80
2019-04-21T09:12:17.785Z,29.60
2019-04-21T09:14:41.775Z,29.80
2019-04-21T09:17:10.799Z,29.00
2019-04-21T09:20:07.577Z,28.60
2019-04-21T09:22:17.823Z,28.90
2019-04-21T09:24:45.618Z,30.40
2019-04-21T09:27:14.318Z,29.90
2019-04-21T09:29:37.910Z,29.60
2019-04-21T09:32:01.930Z,31.40
2019-04-21T09:34:36.492Z,26.80
2019-04-21T09:37:15.428Z,27.40
2019-04-21T09:39:33.207Z,26.50
2019-04-21T09:42:04.415Z,27.50
2019-04-21T09:44:37.218Z,31.00
2019-04-21T09:47:05.084Z,28.50
2019-04-21T09:49:33.890Z,28.80
2019-04-21T09:52:07.965Z,26.70
2019-04-21T09:54:37.054Z,27.30
2019-04-21T09:57:08.856Z,28.70
2019-04-21T09:59:40.091Z,27.70
2019-04-21T10:02:13.393Z,25.80
2019-04-21T10:04:36.007Z,27.80
2019-04-21T10:07:04.774Z,27.00
2019-04-21T10:09:33.495Z,25.30
2019-04-21T10:12:03.106Z,26.70
2019-04-21T10:14:33.015Z,24.90
2019-04-21T10:17:21.787Z,25.10
2019-04-21T10:19:50.779Z,26.90
2019-04-21T10:22:21.000Z,25.00
2019-04-21T10:24:50.084Z,27.20
2019-04-21T10:27:19.131Z,25.00
2019-04-21T10:29:49.070Z,26.30
2019-04-21T10:32:20.150Z,26.50
2019-04-21T10:34:49.429Z,29.20
2019-04-21T10:37:18.887Z,26.40
2019-04-21T10:39:47.641Z,28.50
2019-04-21T10:42:17.381Z,26.40
2019-04-21T10:44:47.118Z,24.90
2019-04-21T10:47:16.616Z,24.80
2019-04-21T10:49:46.521Z,26.40
2019-04-21T10:52:19.847Z,25.30
2019-04-21T10:55:06.903Z,25.40
2019-04-21T10:57:20.336Z,26.20
2019-04-21T10:59:52.441Z,24.10
2019-04-21T11:02:21.188Z,23.90
2019-04-21T11:04:51.109Z,24.30
2019-04-21T11:07:53.109Z,24.30
2019-04-21T11:10:10.041Z,24.90
2019-04-21T11:12:39.747Z,23.70
2019-04-21T11:15:09.392Z,24.60
2019-04-21T11:17:40.627Z,24.80
2019-04-21T11:20:08.971Z,24.80
2019-04-21T11:22:38.906Z,23.50
2019-04-21T11:25:09.153Z,25.50
2019-04-21T11:27:38.134Z,24.20
2019-04-21T11:30:09.538Z,25.10
2019-04-21T11:32:39.038Z,24.80
2019-04-21T11:35:09.431Z,24.60
2019-04-21T11:37:39.833Z,24.10
2019-04-21T11:40:12.530Z,23.80
2019-04-21T11:42:41.902Z,25.80
2019-04-21T11:45:14.690Z,25.10
2019-04-21T11:48:00.981Z,24.50
2019-04-21T11:50:30.916Z,22.80
2019-04-21T11:53:01.059Z,23.20
2019-04-21T11:55:35.256Z,23.00
2019-04-21T11:58:00.347Z,23.20
2019-04-21T12:00:29.484Z,24.30
2019-04-21T12:02:59.503Z,23.90
2019-04-21T12:05:29.672Z,23.10
2019-04-21T12:08:00.169Z,23.00
2019-04-21T12:10:29.308Z,22.70
2019-04-21T12:12:59.244Z,23.60
2019-04-21T12:15:29.172Z,23.00
2019-04-21T12:17:58.136Z,22.80
2019-04-21T12:20:28.518Z,22.30
2019-04-21T12:22:57.489Z,22.10
2019-04-21T12:25:29.187Z,22.90
2019-04-21T12:27:58.216Z,23.20
2019-04-21T12:30:27.314Z,22.50
2019-04-21T12:33:04.307Z,22.60
2019-04-21T12:35:33.579Z,23.40
2019-04-21T12:38:02.794Z,21.90
2019-04-21T12:40:32.552Z,24.00
2019-04-21T12:43:01.107Z,23.10
2019-04-21T12:45:31.639Z,21.20
2019-04-21T12:48:02.054Z,21.20
2019-04-21T12:50:32.057Z,22.10
2019-04-21T12:53:01.127Z,22.80
2019-04-21T12:55:34.107Z,22.90
2019-04-21T12:58:03.495Z,22.50
2019-04-21T13:00:33.366Z,21.70
2019-04-21T13:03:03.573Z,22.70
2019-04-21T13:05:35.683Z,21.70
2019-04-21T13:08:04.751Z,21.80
2019-04-21T13:10:33.988Z,23.70
2019-04-21T13:13:03.840Z,22.10
2019-04-21T13:15:33.557Z,19.80
2019-04-21T13:18:04.671Z,21.90
2019-04-21T13:20:34.119Z,22.10
2019-04-21T13:23:03.915Z,20.50
2019-04-21T13:25:33.882Z,22.60
2019-04-21T13:28:02.945Z,24.30
2019-04-21T13:30:32.658Z,23.80
2019-04-21T13:33:02.936Z,22.20
2019-04-21T13:35:33.177Z,21.70
2019-04-21T13:38:02.645Z,22.80
2019-04-21T13:41:05.305Z,22.10
2019-04-21T13:43:19.017Z,21.90
2019-04-21T13:45:48.098Z,22.80
2019-04-21T13:48:16.902Z,21.70
2019-04-21T13:50:46.927Z,22.50
2019-04-21T13:53:16.692Z,22.00
2019-04-21T13:55:46.689Z,23.50
2019-04-21T13:58:16.813Z,22.30
2019-04-21T14:00:45.837Z,21.40
2019-04-21T14:03:14.671Z,21.00
2019-04-21T14:05:56.233Z,20.80
2019-04-21T14:08:25.348Z,21.90
2019-04-21T14:10:54.260Z,22.20
2019-04-21T14:13:24.616Z,21.30
2019-04-21T14:15:53.888Z,23.50
2019-04-21T14:18:22.819Z,21.80
2019-04-21T14:20:51.541Z,21.10
2019-04-21T14:23:29.942Z,21.40
2019-04-21T14:25:50.482Z,21.40
2019-04-21T14:28:19.897Z,21.40
2019-04-21T14:30:50.354Z,21.70
2019-04-21T14:33:20.452Z,23.10
2019-04-21T14:35:50.615Z,22.50
2019-04-21T14:38:20.622Z,22.20
2019-04-21T14:40:50.349Z,23.70
2019-04-21T14:43:20.455Z,23.80
2019-04-21T14:46:02.996Z,21.50
2019-04-21T14:48:50.873Z,22.20
2019-04-21T14:51:31.616Z,20.50
2019-04-21T14:54:03.646Z,21.40
2019-04-21T14:56:33.467Z,22.40
2019-04-21T14:59:04.300Z,22.60
2019-04-21T15:01:33.739Z,24.00
2019-04-21T15:04:03.815Z,23.00
2019-04-21T15:06:33.714Z,24.10
2019-04-21T15:09:03.057Z,22.60
2019-04-21T15:11:31.969Z,24.60
2019-04-21T15:14:04.384Z,24.10
2019-04-21T15:16:33.502Z,23.20
2019-04-21T15:19:02.503Z,22.30
2019-04-21T15:21:33.419Z,24.40
2019-04-21T15:24:02.452Z,23.10
2019-04-21T15:26:32.400Z,26.10
2019-04-21T15:29:02.595Z,23.00
2019-04-21T15:31:34.489Z,24.40
2019-04-21T15:34:03.188Z,25.40
2019-04-21T15:36:35.009Z,26.00
2019-04-21T15:39:03.616Z,25.30
2019-04-21T15:41:32.466Z,23.20
2019-04-21T15:44:02.646Z,23.40
2019-04-21T15:46:33.893Z,22.10
2019-04-21T15:49:02.691Z,22.00
2019-04-21T15:51:31.674Z,23.80
2019-04-21T15:54:02.641Z,23.20
2019-04-21T15:56:33.075Z,24.90
2019-04-21T15:59:12.647Z,23.50
2019-04-21T16:01:43.156Z,22.40
2019-04-21T16:04:12.644Z,23.70
2019-04-21T16:06:41.659Z,23.90
2019-04-21T16:09:15.032Z,23.80
2019-04-21T16:11:42.093Z,24.60
2019-04-21T16:14:11.106Z,23.10
2019-04-21T16:16:41.046Z,24.10
2019-04-21T16:19:10.249Z,23.70
2019-04-21T16:21:42.205Z,22.00
2019-04-21T16:24:09.167Z,21.50
2019-04-21T16:26:38.394Z,21.80
2019-04-21T16:29:07.465Z,23.10
2019-04-21T16:31:36.413Z,23.50
2019-04-21T16:34:05.514Z,24.50
2019-04-21T16:36:34.228Z,24.40
2019-04-21T16:39:03.395Z,24.00
2019-04-21T16:41:32.187Z,23.00
2019-04-21T16:44:00.991Z,24.40
2019-04-21T16:46:29.740Z,22.60
2019-04-21T16:48:58.232Z,25.70
2019-04-21T16:51:28.363Z,24.30
2019-04-21T16:53:59.856Z,22.50
2019-04-21T16:56:31.122Z,24.00
2019-04-21T16:59:02.817Z,23.10
2019-04-21T17:01:32.463Z,22.90
2019-04-21T17:04:02.243Z,23.80
2019-04-21T17:06:31.267Z,23.40
2019-04-21T17:09:00.951Z,24.50
2019-04-21T17:11:34.680Z,23.80
2019-04-21T17:14:00.623Z,24.10
2019-04-21T17:16:56.086Z,25.60
2019-04-21T17:19:11.344Z,25.20
2019-04-21T17:21:31.960Z,24.50
2019-04-21T17:24:02.147Z,24.70
2019-04-21T17:26:32.884Z,26.70
2019-04-21T17:29:02.639Z,27.70
2019-04-21T17:31:31.634Z,25.40
2019-04-21T17:34:09.588Z,27.60
2019-04-21T17:36:32.739Z,27.10
2019-04-21T17:39:02.222Z,28.20
2019-04-21T17:41:41.214Z,26.90
2019-04-21T17:44:02.516Z,27.80
2019-04-21T17:46:40.783Z,27.90
2019-04-21T17:49:03.164Z,27.20
2019-04-21T17:51:49.598Z,27.90
2019-04-21T17:54:30.040Z,27.60
2019-04-21T17:57:11.238Z,28.60
2019-04-21T17:59:52.298Z,28.50
2019-04-21T18:02:12.004Z,28.70
2019-04-21T18:04:56.035Z,27.90
2019-04-21T18:07:26.383Z,28.70
2019-04-21T18:10:01.656Z,29.90
2019-04-21T18:12:41.405Z,31.30
2019-04-21T18:35:11.601Z,36.90
2019-04-21T18:50:55.385Z,43.20
2019-04-21T18:53:40.117Z,44.10
2019-04-21T18:55:59.425Z,44.00
2019-04-21T18:58:24.318Z,44.90
2019-04-21T19:08:51.245Z,45.20
2019-04-21T19:11:20.910Z,46.20
2019-04-21T19:17:13.697Z,46.90
2019-04-21T19:19:41.137Z,46.90
2019-04-21T19:21:57.701Z,46.90
2019-04-21T19:24:32.074Z,47.20
2019-04-21T19:29:52.123Z,48.30
2019-04-21T19:32:05.049Z,49.50
2019-04-21T19:34:18.678Z,49.20
2019-04-21T19:36:51.209Z,50.30
2019-04-21T19:39:32.733Z,50.30
2019-04-21T19:41:59.623Z,50.00
2019-04-21T19:44:35.168Z,50.80
2019-04-21T19:47:03.638Z,51.10
2019-04-21T19:49:38.288Z,50.80
2019-04-21T19:51:56.529Z,50.50
2019-04-21T19:54:25.134Z,49.90
2019-04-21T19:56:48.991Z,50.30
2019-04-21T19:59:24.954Z,50.80
2019-04-21T20:01:51.281Z,52.60
2019-04-21T20:04:20.025Z,51.20
2019-04-21T20:07:01.033Z,51.10
2019-04-21T20:09:37.951Z,52.10
2019-04-21T20:12:05.121Z,51.70
2019-04-21T20:17:06.376Z,54.00
2019-04-21T20:19:22.918Z,55.30
2019-04-21T20:21:53.376Z,56.20
2019-04-21T20:24:26.571Z,58.20
2019-04-21T20:27:03.522Z,59.40
2019-04-21T20:29:44.563Z,57.90
2019-04-21T20:32:20.178Z,58.70
2019-04-21T20:34:48.984Z,59.80
2019-04-21T20:37:15.021Z,60.30
2019-04-21T20:39:28.317Z,59.30
2019-04-21T20:42:12.353Z,58.40
2019-04-21T20:44:42.292Z,59.20
2019-04-21T20:47:07.422Z,59.00
2019-04-21T20:49:38.546Z,58.80
2019-04-21T20:52:17.331Z,59.40
2019-04-21T20:54:45.227Z,59.50
2019-04-21T20:57:18.866Z,59.70
2019-04-21T20:59:44.019Z,59.90
2019-04-21T21:02:19.249Z,60.80
2019-04-21T21:04:43.459Z,61.40
2019-04-21T21:07:31.715Z,62.30
2019-04-21T21:09:57.725Z,62.10
2019-04-21T21:12:28.606Z,61.90
2019-04-21T21:14:47.468Z,62.50
2019-04-21T21:17:34.047Z,62.50
2019-04-21T21:19:55.759Z,63.10
2019-04-21T21:22:14.694Z,64.00
2019-04-21T21:24:50.545Z,62.90
2019-04-21T21:27:19.631Z,62.60
2019-04-21T21:29:51.580Z,63.20
2019-04-21T21:32:27.343Z,62.50
2019-04-21T21:35:01.379Z,61.50
2019-04-21T21:37:35.111Z,62.00
2019-04-21T21:40:06.087Z,62.00
2019-04-21T21:42:11.850Z,61.00
2019-04-21T21:44:50.437Z,61.30
2019-04-21T21:47:24.149Z,62.50
2019-04-21T21:49:55.387Z,62.80
2019-04-21T21:52:22.521Z,62.60
2019-04-21T21:54:41.769Z,62.00
2019-04-21T21:57:12.441Z,62.70
2019-04-21T21:59:42.184Z,62.20
2019-04-21T22:02:17.227Z,63.10
2019-04-21T22:04:51.068Z,62.80
2019-04-21T22:07:17.131Z,63.00
2019-04-21T22:09:44.311Z,63.60
2019-04-21T22:12:14.167Z,64.60
2019-04-21T22:14:48.184Z,65.40
2019-04-21T22:17:28.990Z,64.10
2019-04-21T22:20:08.544Z,64.30
2019-04-21T22:22:26.543Z,65.10
2019-04-21T22:24:56.690Z,64.50
2019-04-21T22:27:15.304Z,65.00
2019-04-21T22:29:48.219Z,65.80
2019-04-21T22:32:19.257Z,65.90
2019-04-21T22:34:51.956Z,65.20
2019-04-21T22:37:31.775Z,64.70
2019-04-21T22:40:03.610Z,65.00
2019-04-21T22:42:22.408Z,66.00
2019-04-21T22:44:48.097Z,66.40
2019-04-21T22:47:23.790Z,67.30
2019-04-21T22:49:48.642Z,66.20
2019-04-21T22:52:20.992Z,66.00
2019-04-21T22:54:49.300Z,65.30
2019-04-21T22:57:22.973Z,65.20
2019-04-21T22:59:53.870Z,67.40
2019-04-21T23:02:25.935Z,67.50
2019-04-21T23:04:54.775Z,67.20
2019-04-21T23:07:24.186Z,68.00
2019-04-21T23:09:51.465Z,69.10
2019-04-21T23:12:27.678Z,69.30
2019-04-21T23:14:58.551Z,68.60
2019-04-21T23:17:38.925Z,67.70
2019-04-21T23:20:13.276Z,67.80
2019-04-21T23:22:51.369Z,67.80
2019-04-21T23:25:13.665Z,67.50
2019-04-21T23:27:38.776Z,67.40
2019-04-21T23:30:20.233Z,68.10
2019-04-21T23:32:36.061Z,68.00
2019-04-21T23:34:56.122Z,67.90
2019-04-21T23:37:27.169Z,68.40
2019-04-21T23:40:05.717Z,68.50
2019-04-21T23:42:31.762Z,67.80
2019-04-21T23:44:59.666Z,69.00
2019-04-21T23:47:39.521Z,68.50
2019-04-21T23:50:05.401Z,67.80
2019-04-21T23:52:28.073Z,68.60
2019-04-21T23:54:56.903Z,69.80
2019-04-21T23:57:33.600Z,71.20
